KIWD/IWD METAR and TAF weather

Enter ICAO airport designator
Station Type Date Time Source
KIWD METAR 2023/01/30 10:56 UTC NOAA

KIWD 301056Z AUTO 24009KT 10SM FEW027 BKN042 M22/M25 A3026 RMK AO2 SLP287 T12221250 FZRANO


Station Type Date Time Source
KIWD Decoded METAR 2023/01/30 10:56 UTC NOAA

Ironwood, Gogebic-Iron County Airport, MI, United States (KIWD) 46-32N 090-08W
Jan 30, 2023 - 05:56 AM EST / 2023.01.30 1056 UTC
Wind: from the WSW (240 degrees) at 10 MPH (9 KT):0
Visibility: 10 mile(s):0
Sky conditions: mostly cloudy
Temperature: -8.0 F (-22.2 C)
Windchill: -25 F (-32 C):2
Dew Point: -13.0 F (-25.0 C)
Relative Humidity: 77%
Pressure (altimeter): 30.26 in. Hg (1024 hPa)
ob: KIWD 301056Z AUTO 24009KT 10SM FEW027 BKN042 M22/M25 A3026 RMK AO2 SLP287 T12221250 FZRANO
cycle: 11

Station Type Date Time Source
KIWD TAF 2023/01/30 12:34 UTC NOAA

TAF KIWD 301131Z 3012/3112 25010KT P6SM BKN040
TEMPO 3012/3015 -SHSN BKN025

Example: see airport list